Bellevue, NE (68147)

9:53 PM CDT on May 28, 2015 (GMT -0500)
North Bellevue/Kennedy Freeway | | Change Station
CLOSE
Current Station
Personal Weather Station
Location: Bellevue, NE
Elevation: 1178 ft
Nearby Weather Stations

Elev 1178 ft 41.19 °N, 95.94 °W | Updated 6 seconds ago

Partly Cloudy
Partly Cloudy
68.0 °F
Feels Like 68.0 °F
N
4.1
Wind Variable Wind from SE
Gusts 8.3 mph

Today
High -- | Low -- °F
--% Chance of Precip.
Yesterday
High -- | Low -- °F
Precip. -- in
5:55 AM 8:47 PM
Waxing Gibbous, 80% visible
Pressure 29.94 in
Visibility 10.0 miles
Clouds Mostly Cloudy 2800 ft
Dew Point 65 °F
Humidity 89%
Rainfall 0.00 in
Snow Depth Not available.
UV 0 out of 12
Pollen 5.30 out of 12
Air Quality Not available.
Flu Activity No Activity
SPECI KOFF 290235Z AUTO 14002KT 10SM BKN028 19/17 A2994 RMK AO2 CIG 028V035 BKN V SCT

More Conditions Fewer Conditions

Pressure 29.94 in
Visibility 10.0 miles
Clouds Mostly Cloudy 2800 ft
Dew Point 65 °F
Humidity 89%
Rainfall 0.00 in
Snow Depth Not available.
UV 0 out of 12
Pollen 5.30 out of 12
Air Quality Not available.
Flu Activity No Activity
SPECI KOFF 290235Z AUTO 14002KT 10SM BKN028 19/17 A2994 RMK AO2 CIG 028V035 BKN V SCT

More Conditions Fewer Conditions

10-Day Weather Forecast

Almanac

Astronomy

May. 28, 2015 Rise Set
Actual Time
Civil Twilight
Nautical Twilight
Astronomical Twilight
Moon
Length of Visible Light
Length of Day
Tomorrow will be .
, % of the Moon is Illuminated

Today's Extremes

State Highs State Lows

Community

WunderPhotos

Upload Photos

1,825,146 photos uploaded!

WunderBlogs® & News

Nearby

Air Quality

  Air Quality AQ Index Pollutant
Not available.

Snow Depth

Station Depth Elevation

Earthquake Activity

City Distance Mag. Time & Date
Minimum magnitude displayed is 2.5.

Coastal Water Temperatures

Place Temperature

Stations

Nearby Weather Stations

Station Location Temp. Windchill Dew Point Humidity Wind Precip. Elev Updated Type